Time;durP1;ratioP1;P1;durP2;ratioP2;P2;SDS_P1;SDS_P2;PMS_P1;PMS_P2;Temp;Humidity;BMP_temperature;BMP_pressure;BME280_temperature;BME280_humidity;BME280_pressure;Samples;Min_cycle;Max_cycle;Signal;HPM_P1;HPM_P2
2021/12/13 00:03:10;;;;;;;6.60;6.00;;;4.80;99.90;;;;;;5069078;28;20377;-80
2021/12/13 00:06:11;;;;;;;7.07;5.70;;;4.80;99.90;;;;;;5069087;28;20407;-80
2021/12/13 00:08:54;;;;;;;5.37;4.63;;;4.90;99.90;;;;;;5069631;28;20383;-80
2021/12/13 00:12:09;;;;;;;10.63;5.43;;;4.80;99.90;;;;;;5069173;28;20371;-80
2021/12/13 00:17:54;;;;;;;9.77;7.17;;;4.90;99.90;;;;;;5068671;28;20388;-80
2021/12/13 00:26:34;;;;;;;11.20;7.50;;;4.80;99.90;;;;;;5054884;28;20464;-80
2021/12/13 00:29:22;;;;;;;7.67;5.80;;;4.80;99.90;;;;;;5068707;28;20762;-80
2021/12/13 00:32:38;;;;;;;5.97;5.17;;;4.80;99.90;;;;;;5052717;28;20425;-80
2021/12/13 00:38:22;;;;;;;10.07;6.63;;;4.70;99.90;;;;;;5068845;28;20485;-80
2021/12/13 00:41:06;;;;;;;7.73;6.20;;;4.70;99.90;;;;;;5068809;28;20373;-80
2021/12/13 00:44:07;;;;;;;10.97;5.90;;;4.70;99.90;;;;;;5069481;28;20474;-80
2021/12/13 00:53:20;;;;;;;7.10;5.13;;;4.60;99.90;;;;;;5067919;28;20384;-81
2021/12/13 00:55:48;;;;;;;7.10;6.40;;;4.80;99.90;;;;;;5068323;28;20394;-80
2021/12/13 01:01:41;;;;;;;9.20;6.90;;;4.70;99.90;;;;;;5069467;28;20471;-80
2021/12/13 01:04:32;;;;;;;12.10;6.47;;;4.70;99.90;;;;;;5068830;28;20420;-80
2021/12/13 01:07:35;;;;;;;7.20;6.50;;;4.80;99.90;;;;;;5068368;28;20381;-80
2021/12/13 01:10:40;;;;;;;8.03;6.57;;;4.70;99.90;;;;;;5069217;28;20842;-80
2021/12/13 01:13:27;;;;;;;8.80;7.90;;;4.80;99.90;;;;;;5068656;28;20866;-80
2021/12/13 01:29:02;;;;;;;8.10;5.67;;;4.90;99.90;;;;;;5071350;28;20769;-80
2021/12/13 01:32:00;;;;;;;11.53;7.30;;;4.70;99.90;;;;;;5067558;28;20371;-80
2021/12/13 01:37:16;;;;;;;11.80;7.10;;;4.70;99.90;;;;;;5067615;28;20445;-80
2021/12/13 01:39:57;;;;;;;10.50;7.53;;;4.70;99.90;;;;;;5052470;28;20429;-80
2021/12/13 01:42:29;;;;;;;15.60;9.00;;;4.80;99.90;;;;;;5067708;28;20386;-80
2021/12/13 01:45:29;;;;;;;10.37;7.80;;;4.80;99.90;;;;;;5067526;28;20446;-80
2021/12/13 01:48:41;;;;;;;19.03;7.43;;;4.70;99.90;;;;;;5067517;28;20477;-80
2021/12/13 01:51:25;;;;;;;13.00;7.23;;;4.60;99.90;;;;;;5066985;28;20372;-80
2021/12/13 01:53:56;;;;;;;14.67;7.73;;;4.70;99.90;;;;;;5068066;28;20468;-80
2021/12/13 01:56:47;;;;;;;7.00;6.17;;;4.80;99.90;;;;;;5067866;28;20373;-79
2021/12/13 01:59:53;;;;;;;8.40;6.97;;;4.90;99.90;;;;;;5050533;28;20409;-80
2021/12/13 02:03:09;;;;;;;9.80;6.87;;;4.80;99.90;;;;;;5078076;28;20417;-80
2021/12/13 02:05:54;;;;;;;9.03;7.00;;;4.80;99.90;;;;;;5068985;28;20397;-80
2021/12/13 02:11:26;;;;;;;8.53;6.70;;;4.80;99.90;;;;;;5067871;28;20416;-79
2021/12/13 02:14:21;;;;;;;13.50;7.90;;;4.80;99.90;;;;;;5066839;28;20399;-79
2021/12/13 02:17:17;;;;;;;11.53;8.97;;;4.70;99.90;;;;;;5067766;28;20870;-80
2021/12/13 02:23:15;;;;;;;15.53;11.53;;;4.70;99.90;;;;;;5053341;28;20415;-80
2021/12/13 02:26:11;;;;;;;14.40;9.33;;;4.60;99.90;;;;;;5067795;28;20428;-80
2021/12/13 02:29:34;;;;;;;14.40;9.50;;;4.70;99.90;;;;;;5067946;28;20376;-80
2021/12/13 02:32:19;;;;;;;15.63;8.20;;;4.60;99.90;;;;;;5067351;28;20415;-79
2021/12/13 02:35:11;;;;;;;15.90;9.00;;;4.70;99.90;;;;;;5049985;28;20369;-80
2021/12/13 02:38:02;;;;;;;16.27;9.30;;;4.60;99.90;;;;;;5068110;28;20441;-80
2021/12/13 02:40:28;;;;;;;22.93;12.57;;;4.70;99.90;;;;;;5068313;28;20448;-80
2021/12/13 02:43:19;;;;;;;14.37;7.80;;;4.60;99.90;;;;;;5075810;28;20385;-80
2021/12/13 02:45:50;;;;;;;15.80;8.40;;;4.50;99.90;;;;;;5077598;28;20377;-79
2021/12/13 02:48:37;;;;;;;12.37;9.20;;;4.60;99.90;;;;;;5077685;28;20474;-78
2021/12/13 02:51:22;;;;;;;15.33;7.90;;;4.60;99.90;;;;;;5060410;28;20445;-80
2021/12/13 02:53:57;;;;;;;15.67;9.90;;;4.60;99.90;;;;;;5077690;28;20416;-79
2021/12/13 02:56:41;;;;;;;16.90;9.30;;;4.60;99.90;;;;;;5061412;28;20395;-79
2021/12/13 02:59:27;;;;;;;16.47;10.80;;;4.60;99.90;;;;;;5077043;28;20376;-79
2021/12/13 03:02:26;;;;;;;16.10;10.40;;;4.70;99.90;;;;;;5077411;28;20387;-80
2021/12/13 03:05:26;;;;;;;12.30;9.00;;;4.60;99.90;;;;;;5075929;28;20451;-79
2021/12/13 03:08:26;;;;;;;13.23;8.23;;;4.60;99.90;;;;;;5075968;28;20404;-79
2021/12/13 03:11:42;;;;;;;19.63;8.73;;;4.50;99.90;;;;;;5072670;28;20376;-80
2021/12/13 03:14:24;;;;;;;15.30;9.43;;;4.60;99.90;;;;;;5070384;28;20404;-79
2021/12/13 03:17:22;;;;;;;16.30;11.33;;;4.50;99.90;;;;;;5070403;28;20394;-80
2021/12/13 03:20:05;;;;;;;15.80;9.93;;;4.50;99.90;;;;;;5070261;28;20392;-79
2021/12/13 03:23:03;;;;;;;10.50;7.70;;;4.50;99.90;;;;;;5052534;28;20405;-80
2021/12/13 03:29:34;;;;;;;15.23;8.03;;;4.60;99.90;;;;;;5070610;28;20395;-80
2021/12/13 03:35:22;;;;;;;11.03;8.70;;;4.70;99.90;;;;;;5070693;28;20409;-79
2021/12/13 03:44:25;;;;;;;17.30;9.73;;;4.70;99.90;;;;;;5069719;28;20963;-80
2021/12/13 03:47:11;;;;;;;14.43;9.47;;;4.70;99.90;;;;;;5069973;28;20453;-79
2021/12/13 03:50:08;;;;;;;13.50;8.47;;;4.70;99.90;;;;;;5069633;28;20369;-80
2021/12/13 03:52:48;;;;;;;14.57;8.87;;;4.70;99.90;;;;;;5069084;28;20847;-79
2021/12/13 03:55:31;;;;;;;18.13;9.67;;;4.80;99.90;;;;;;5068815;28;20404;-79
2021/12/13 04:10:21;;;;;;;18.10;11.57;;;4.70;99.90;;;;;;5069237;28;20373;-80
2021/12/13 04:13:24;;;;;;;15.20;8.30;;;4.70;99.90;;;;;;5069365;28;20370;-80
2021/12/13 04:16:33;;;;;;;19.33;8.77;;;4.80;99.90;;;;;;5069218;28;20396;-80
2021/12/13 04:31:32;;;;;;;16.57;8.67;;;4.80;99.90;;;;;;5069000;28;20452;-80
2021/12/13 04:34:28;;;;;;;21.37;10.70;;;4.70;99.90;;;;;;5068800;28;20385;-80
2021/12/13 04:37:27;;;;;;;19.20;11.37;;;4.70;99.90;;;;;;5068797;28;20373;-79
2021/12/13 04:40:14;;;;;;;17.20;10.17;;;4.80;99.90;;;;;;5070477;28;20481;-80
2021/12/13 04:42:42;;;;;;;19.07;11.77;;;4.80;99.90;;;;;;5070125;28;20402;-78
2021/12/13 04:45:52;;;;;;;19.77;11.00;;;4.80;99.90;;;;;;5070137;28;20446;-80
2021/12/13 04:48:23;;;;;;;16.63;9.73;;;4.80;99.90;;;;;;5067590;28;20392;-81
2021/12/13 04:51:22;;;;;;;21.80;12.87;;;4.80;99.90;;;;;;5068030;28;20396;-80
2021/12/13 04:54:13;;;;;;;21.13;10.10;;;4.80;99.90;;;;;;5067617;28;20413;-80
2021/12/13 04:56:52;;;;;;;19.00;9.13;;;4.80;99.90;;;;;;5068237;28;20431;-79
2021/12/13 04:59:49;;;;;;;25.37;10.50;;;4.80;99.90;;;;;;5069067;28;20530;-80
2021/12/13 05:02:27;;;;;;;19.57;10.50;;;4.80;99.90;;;;;;5068649;28;20778;-80
2021/12/13 05:04:56;;;;;;;15.43;8.83;;;4.80;99.90;;;;;;5078329;28;20440;-81
2021/12/13 05:08:06;;;;;;;21.10;9.80;;;4.80;99.90;;;;;;5072015;28;20369;-81
2021/12/13 05:10:50;;;;;;;18.37;9.57;;;4.80;99.90;;;;;;5067953;28;20368;-80
2021/12/13 05:13:24;;;;;;;21.20;9.67;;;4.80;99.90;;;;;;5053576;28;20373;-81
2021/12/13 05:19:20;;;;;;;19.63;10.60;;;4.80;99.90;;;;;;5066956;28;20462;-80
2021/12/13 05:24:54;;;;;;;21.43;11.03;;;4.80;99.90;;;;;;5068353;28;20889;-80
2021/12/13 05:27:48;;;;;;;15.50;10.63;;;4.80;99.90;;;;;;5068135;28;20971;-80
2021/12/13 05:30:31;;;;;;;28.40;12.47;;;4.90;99.90;;;;;;5068101;28;20418;-81
2021/12/13 05:33:25;;;;;;;16.73;10.23;;;4.80;99.90;;;;;;5068935;28;20398;-80
2021/12/13 05:36:23;;;;;;;24.93;12.77;;;4.80;99.90;;;;;;5067945;28;20414;-80
2021/12/13 05:42:43;;;;;;;23.53;10.33;;;4.70;99.90;;;;;;5094072;28;20359;-80
2021/12/13 05:45:31;;;;;;;22.47;9.90;;;4.70;99.90;;;;;;5093232;28;20496;-81
2021/12/13 05:48:31;;;;;;;17.53;10.30;;;4.70;99.90;;;;;;5088680;28;20368;-80
2021/12/13 05:51:22;;;;;;;22.60;10.60;;;4.80;99.90;;;;;;5096196;28;20858;-80
2021/12/13 05:54:34;;;;;;;18.60;10.13;;;4.80;99.90;;;;;;5079135;28;20390;-81
2021/12/13 05:57:29;;;;;;;17.00;10.07;;;4.80;99.90;;;;;;5094685;28;20457;-80
2021/12/13 06:00:29;;;;;;;20.87;10.53;;;4.80;99.90;;;;;;5088682;28;20390;-81
2021/12/13 06:03:25;;;;;;;21.50;11.93;;;4.70;99.90;;;;;;5092526;28;20355;-78
2021/12/13 06:06:12;;;;;;;14.23;9.10;;;4.80;99.90;;;;;;5095536;28;20421;-78
2021/12/13 06:08:55;;;;;;;17.57;9.43;;;4.80;99.90;;;;;;5095453;28;20371;-78
2021/12/13 06:12:02;;;;;;;18.93;9.67;;;4.80;99.90;;;;;;5090298;28;20397;-79
2021/12/13 06:14:40;;;;;;;24.93;11.53;;;4.80;99.90;;;;;;5087212;28;20449;-81
2021/12/13 06:17:51;;;;;;;21.73;11.30;;;4.90;99.90;;;;;;5087547;28;20424;-80
2021/12/13 06:23:51;;;;;;;19.33;12.37;;;4.80;99.90;;;;;;5086167;28;20419;-80
2021/12/13 06:27:00;;;;;;;34.37;12.40;;;4.90;99.90;;;;;;5085529;28;20399;-80
2021/12/13 06:30:11;;;;;;;27.37;10.10;;;4.90;99.90;;;;;;5084854;28;20392;-80
2021/12/13 06:32:59;;;;;;;20.83;10.17;;;4.80;99.90;;;;;;5083848;28;20477;-79
2021/12/13 06:35:58;;;;;;;17.20;10.00;;;4.80;99.90;;;;;;5081714;28;20429;-80
2021/12/13 06:38:45;;;;;;;21.40;10.33;;;4.90;99.90;;;;;;5083068;28;20442;-78
2021/12/13 06:45:04;;;;;;;26.67;12.00;;;5.00;99.90;;;;;;5076530;28;20567;-79
2021/12/13 06:47:51;;;;;;;19.73;11.17;;;5.00;99.90;;;;;;5089556;28;20400;-80
2021/12/13 06:54:16;;;;;;;22.57;13.43;;;5.10;99.90;;;;;;5089262;28;20380;-80
2021/12/13 06:57:06;;;;;;;19.20;10.07;;;5.10;99.90;;;;;;5088087;28;20445;-80
2021/12/13 06:59:53;;;;;;;18.97;11.83;;;5.00;99.90;;;;;;5088137;28;20392;-79
2021/12/13 07:06:17;;;;;;;23.43;11.37;;;5.00;99.90;;;;;;5088470;28;20424;-79
2021/12/13 07:12:12;;;;;;;22.13;10.73;;;4.90;99.90;;;;;;5081712;28;20420;-79
2021/12/13 07:15:15;;;;;;;16.17;9.70;;;4.90;99.90;;;;;;5082591;28;20413;-79
2021/12/13 07:24:22;;;;;;;30.40;12.27;;;5.00;99.90;;;;;;5087955;28;20573;-79
2021/12/13 07:27:07;;;;;;;18.17;11.10;;;5.10;99.90;;;;;;5067949;28;20373;-80
2021/12/13 07:29:53;;;;;;;23.10;9.07;;;5.10;99.90;;;;;;5084024;28;20482;-79
2021/12/13 07:32:58;;;;;;;19.30;10.83;;;5.20;99.90;;;;;;5079094;28;20463;-80
2021/12/13 07:35:47;;;;;;;21.53;10.63;;;5.20;99.90;;;;;;5078795;28;20396;-80
2021/12/13 07:38:26;;;;;;;25.07;11.30;;;5.20;99.90;;;;;;5085460;28;20503;-80
2021/12/13 07:40:57;;;;;;;22.97;12.13;;;5.20;99.90;;;;;;5079589;28;20412;-79
2021/12/13 07:43:26;;;;;;;21.33;10.47;;;5.20;99.90;;;;;;5083249;28;20521;-80
2021/12/13 07:46:11;;;;;;;16.07;9.13;;;5.20;99.90;;;;;;5067162;28;20429;-80
2021/12/13 07:49:10;;;;;;;23.60;11.73;;;5.20;99.90;;;;;;5083115;28;20475;-80
2021/12/13 07:52:00;;;;;;;22.73;10.93;;;5.30;99.90;;;;;;5075426;28;20890;-80
2021/12/13 07:54:27;;;;;;;26.10;12.93;;;5.30;99.90;;;;;;5074462;28;20494;-79
2021/12/13 08:00:31;;;;;;;28.17;10.87;;;5.30;99.90;;;;;;5075469;28;20424;-80
2021/12/13 08:03:12;;;;;;;20.47;10.97;;;5.20;99.90;;;;;;5067346;28;20437;-79
2021/12/13 08:08:32;;;;;;;16.37;10.67;;;5.30;99.90;;;;;;5086152;28;20447;-81
2021/12/13 08:14:30;;;;;;;24.00;11.90;;;5.30;99.90;;;;;;5080638;28;20434;-81
2021/12/13 08:17:31;;;;;;;16.20;10.73;;;5.30;99.90;;;;;;5078155;28;20403;-80
2021/12/13 08:30:43;;;;;;;19.53;10.53;;;5.50;99.90;;;;;;5080681;28;20391;-80
2021/12/13 08:33:25;;;;;;;19.30;9.43;;;5.50;99.90;;;;;;5083253;28;20424;-80
2021/12/13 08:36:13;;;;;;;20.63;10.83;;;5.40;99.90;;;;;;5062901;28;20424;-81
2021/12/13 08:39:25;;;;;;;18.53;11.03;;;5.40;99.90;;;;;;5078253;28;20462;-80
2021/12/13 08:42:11;;;;;;;14.63;9.70;;;5.50;99.90;;;;;;5079399;28;20392;-81
2021/12/13 08:47:53;;;;;;;20.80;10.00;;;5.50;99.90;;;;;;5079571;28;21059;-81
2021/12/13 08:53:43;;;;;;;19.57;10.80;;;5.40;99.90;;;;;;5080842;28;20482;-82
2021/12/13 09:05:50;;;;;;;16.60;10.47;;;5.40;99.90;;;;;;5079701;28;20438;-80
2021/12/13 09:11:59;;;;;;;17.30;11.30;;;5.50;99.90;;;;;;5080757;28;20435;-81
2021/12/13 09:14:37;;;;;;;13.73;9.00;;;5.50;99.90;;;;;;5082349;28;20404;-80
2021/12/13 09:17:32;;;;;;;17.10;10.20;;;5.50;99.90;;;;;;5084328;28;20460;-80
2021/12/13 09:20:21;;;;;;;15.20;10.60;;;5.60;99.90;;;;;;5080263;28;20444;-80
2021/12/13 09:23:22;;;;;;;23.00;11.53;;;5.60;99.90;;;;;;5080045;28;20446;-80
2021/12/13 09:26:24;;;;;;;19.50;9.97;;;5.80;99.90;;;;;;5065560;28;20403;-81
2021/12/13 09:32:01;;;;;;;19.13;9.57;;;5.90;99.90;;;;;;5075003;28;20424;-77
2021/12/13 09:40:48;;;;;;;11.53;9.60;;;5.90;99.90;;;;;;4999466;28;20422;-80
2021/12/13 09:43:36;;;;;;;20.50;11.33;;;5.90;99.90;;;;;;4971677;28;20574;-81
2021/12/13 09:46:22;;;;;;;20.80;12.53;;;6.00;99.90;;;;;;4982401;28;20433;-81
2021/12/13 09:49:37;;;;;;;26.57;10.10;;;6.00;99.90;;;;;;4994890;28;20460;-81
2021/12/13 09:52:52;;;;;;;15.97;9.67;;;6.00;99.90;;;;;;4998484;28;20499;-80
2021/12/13 09:55:41;;;;;;;16.30;8.77;;;6.00;99.90;;;;;;4914844;29;20408;-80
2021/12/13 09:58:40;;;;;;;17.87;11.47;;;6.00;99.90;;;;;;4897887;29;21077;-79
2021/12/13 10:01:30;;;;;;;21.33;10.50;;;6.10;99.90;;;;;;4905087;29;20406;-81
2021/12/13 10:04:30;;;;;;;13.03;9.63;;;6.10;99.90;;;;;;4917609;29;20474;-80
2021/12/13 10:09:55;;;;;;;16.30;10.60;;;6.20;99.90;;;;;;4957301;28;20433;-80
2021/12/13 10:12:30;;;;;;;13.60;9.37;;;6.20;99.90;;;;;;4886514;29;20403;-80
2021/12/13 10:18:20;;;;;;;13.53;9.67;;;6.30;99.90;;;;;;4867957;29;20464;-79
2021/12/13 10:21:03;;;;;;;14.43;9.17;;;6.40;99.90;;;;;;4852530;29;20493;-78
2021/12/13 10:24:18;;;;;;;11.80;8.00;;;6.30;99.90;;;;;;4883354;29;20963;-80
2021/12/13 10:27:12;;;;;;;14.83;8.27;;;6.30;99.90;;;;;;4946896;28;20413;-79
2021/12/13 10:29:41;;;;;;;18.20;9.20;;;6.30;99.90;;;;;;4948972;28;20439;-79
2021/12/13 10:32:41;;;;;;;13.93;9.67;;;6.40;99.90;;;;;;4917936;29;20924;-80
2021/12/13 10:41:39;;;;;;;12.50;7.87;;;6.40;99.90;;;;;;5030107;28;20411;-80
2021/12/13 10:47:57;;;;;;;16.17;10.20;;;6.50;99.90;;;;;;5073970;28;20482;-79
2021/12/13 10:50:47;;;;;;;14.97;9.50;;;6.50;99.90;;;;;;5061099;28;20449;-80
2021/12/13 10:53:41;;;;;;;16.83;9.53;;;6.50;99.90;;;;;;5048983;28;20520;-78
2021/12/13 10:56:40;;;;;;;23.30;8.57;;;6.60;99.90;;;;;;5045958;28;20414;-81
2021/12/13 11:02:12;;;;;;;14.17;9.47;;;6.60;99.90;;;;;;5052269;28;20560;-81
2021/12/13 11:11:27;;;;;;;16.40;9.67;;;6.70;99.90;;;;;;5068879;28;20513;-81
2021/12/13 11:14:21;;;;;;;10.50;6.87;;;6.70;99.90;;;;;;5066082;28;20433;-82
2021/12/13 11:17:15;;;;;;;10.90;8.13;;;6.70;99.90;;;;;;5061647;28;20429;-81
2021/12/13 11:20:06;;;;;;;13.10;7.33;;;6.70;99.90;;;;;;5065494;28;20440;-81
2021/12/13 11:23:03;;;;;;;13.13;8.10;;;6.70;99.90;;;;;;5065524;28;20461;-82
2021/12/13 11:25:47;;;;;;;11.07;7.60;;;6.70;99.90;;;;;;5066277;28;20449;-81
2021/12/13 11:32:30;;;;;;;10.90;6.67;;;6.80;99.90;;;;;;5068919;28;20810;-81
2021/12/13 11:35:59;;;;;;;11.77;7.27;;;6.90;99.90;;;;;;5062502;28;20449;-81
2021/12/13 11:39:10;;;;;;;8.90;7.73;;;7.10;99.90;;;;;;5049857;28;20486;-81
2021/12/13 11:41:59;;;;;;;7.83;6.10;;;7.10;99.90;;;;;;5052701;28;20488;-80
2021/12/13 11:48:29;;;;;;;9.40;6.53;;;7.00;99.90;;;;;;5047885;28;20913;-82
2021/12/13 11:51:54;;;;;;;9.80;6.50;;;7.10;99.90;;;;;;5031708;28;20497;-80
2021/12/13 11:55:11;;;;;;;7.83;6.20;;;7.10;99.90;;;;;;5034852;28;20441;-81
2021/12/13 12:01:31;;;;;;;8.33;6.60;;;7.10;99.90;;;;;;5034422;28;20405;-81
2021/12/13 12:04:40;;;;;;;11.87;7.27;;;7.30;99.90;;;;;;5049178;28;20469;-82
2021/12/13 12:07:48;;;;;;;9.80;7.07;;;7.30;99.90;;;;;;5046061;28;20478;-82
2021/12/13 12:11:00;;;;;;;9.83;6.63;;;7.50;99.90;;;;;;5053730;28;20429;-82
2021/12/13 12:14:24;;;;;;;7.23;6.43;;;7.50;99.90;;;;;;5053922;28;20401;-81
2021/12/13 12:16:53;;;;;;;7.90;6.40;;;7.60;99.90;;;;;;5035628;28;20401;-81
2021/12/13 12:19:41;;;;;;;8.97;6.30;;;7.70;99.90;;;;;;5054430;28;20423;-81
2021/12/13 12:22:40;;;;;;;7.93;5.50;;;7.60;99.90;;;;;;5055646;28;20482;-81
2021/12/13 12:25:06;;;;;;;6.20;4.70;;;7.60;99.90;;;;;;5054723;28;20444;-80
2021/12/13 12:28:00;;;;;;;6.07;4.53;;;7.70;99.90;;;;;;5057881;28;20409;-82
2021/12/13 12:31:03;;;;;;;7.17;5.17;;;7.60;99.90;;;;;;5052154;28;20524;-82
2021/12/13 12:34:02;;;;;;;6.03;5.43;;;7.70;99.90;;;;;;5057363;28;20396;-80
2021/12/13 12:36:58;;;;;;;6.33;5.50;;;7.60;99.90;;;;;;5056666;28;20422;-82
2021/12/13 12:40:09;;;;;;;5.30;4.90;;;7.80;99.90;;;;;;5062462;28;20506;-81
2021/12/13 12:42:43;;;;;;;9.10;5.57;;;7.70;99.90;;;;;;5056788;28;20457;-82
2021/12/13 12:45:30;;;;;;;8.70;6.50;;;7.70;99.90;;;;;;5074307;28;20465;-83
2021/12/13 12:48:21;;;;;;;7.10;5.13;;;7.80;99.90;;;;;;5072604;28;20418;-82
2021/12/13 12:51:42;;;;;;;7.10;6.40;;;7.90;99.90;;;;;;5066732;28;20921;-82
2021/12/13 12:54:40;;;;;;;7.87;6.03;;;8.00;99.90;;;;;;5060998;28;20888;-82
2021/12/13 12:57:37;;;;;;;7.33;6.63;;;8.00;99.90;;;;;;5076022;28;20445;-82
2021/12/13 13:00:53;;;;;;;9.90;7.10;;;7.90;99.90;;;;;;5075582;28;20433;-82
2021/12/13 13:06:24;;;;;;;10.80;7.43;;;8.00;99.90;;;;;;5080531;28;20416;-81
2021/12/13 13:12:10;;;;;;;9.70;6.50;;;8.10;99.90;;;;;;5078707;28;20780;-78
2021/12/13 13:14:59;;;;;;;5.70;5.20;;;7.80;99.90;;;;;;5079455;28;20400;-80
2021/12/13 13:18:00;;;;;;;10.20;6.13;;;7.60;99.90;;;;;;5083813;28;20445;-81
2021/12/13 13:20:45;;;;;;;7.43;5.97;;;7.60;99.90;;;;;;5076169;28;20614;-80
2021/12/13 13:27:01;;;;;;;8.20;7.23;;;7.80;99.90;;;;;;5077096;28;20514;-81
2021/12/13 13:35:36;;;;;;;10.00;6.50;;;7.70;99.90;;;;;;5064687;28;20403;-81
2021/12/13 13:38:23;;;;;;;7.93;7.00;;;7.80;99.90;;;;;;5082849;28;20440;-80
2021/12/13 13:41:05;;;;;;;6.73;6.00;;;7.80;99.90;;;;;;5083987;28;20401;-80
2021/12/13 13:43:55;;;;;;;8.10;6.17;;;7.90;99.90;;;;;;5074174;28;20413;-78
2021/12/13 13:52:39;;;;;;;5.63;5.00;;;8.00;99.90;;;;;;5061817;28;20404;-83
2021/12/13 14:05:12;;;;;;;9.27;6.50;;;7.80;99.90;;;;;;5060438;28;20437;-80
2021/12/13 14:07:40;;;;;;;8.77;6.77;;;7.70;99.90;;;;;;5058950;28;20465;-80
2021/12/13 14:10:12;;;;;;;8.17;5.83;;;7.60;99.90;;;;;;5069956;28;20781;-80
2021/12/13 14:12:45;;;;;;;7.90;6.37;;;7.70;99.90;;;;;;5060549;28;20426;-80
2021/12/13 14:15:17;;;;;;;8.13;5.27;;;7.90;99.90;;;;;;5065139;28;20535;-80
2021/12/13 14:17:51;;;;;;;7.03;5.20;;;8.00;99.90;;;;;;5063037;28;20477;-80
2021/12/13 14:20:30;;;;;;;7.53;5.87;;;8.00;99.90;;;;;;5064701;28;20408;-80
2021/12/13 14:23:13;;;;;;;14.13;7.00;;;8.00;99.90;;;;;;5062736;28;20452;-80
2021/12/13 14:25:42;;;;;;;7.27;6.57;;;7.90;99.90;;;;;;5072143;28;20446;-80
2021/12/13 14:28:13;;;;;;;11.27;6.90;;;7.90;99.90;;;;;;5065296;28;20426;-80
2021/12/13 14:30:43;;;;;;;9.37;7.20;;;7.80;99.90;;;;;;5085232;28;20780;-80
2021/12/13 14:33:22;;;;;;;8.80;6.93;;;7.70;99.90;;;;;;5065047;28;20401;-80
2021/12/13 14:35:59;;;;;;;8.00;5.70;;;7.60;99.90;;;;;;5063778;28;20397;-80
2021/12/13 14:38:27;;;;;;;6.03;5.43;;;7.50;99.90;;;;;;5067326;28;20556;-80
2021/12/13 14:40:56;;;;;;;6.67;5.67;;;7.50;99.90;;;;;;5066550;28;20487;-80
2021/12/13 14:43:30;;;;;;;8.90;6.17;;;7.50;99.90;;;;;;5083059;28;20421;-80
2021/12/13 14:45:57;;;;;;;7.10;6.30;;;7.50;99.90;;;;;;5063571;28;20486;-79
2021/12/13 14:48:26;;;;;;;6.60;5.00;;;7.50;99.90;;;;;;5085773;28;20407;-78
2021/12/13 14:50:59;;;;;;;7.27;6.57;;;7.40;99.90;;;;;;5078138;28;20733;-79
2021/12/13 14:53:29;;;;;;;8.43;5.87;;;7.40;99.90;;;;;;5057201;28;20422;-79
2021/12/13 14:56:01;;;;;;;5.47;4.90;;;7.50;99.90;;;;;;5078560;28;20433;-79
2021/12/13 14:58:55;;;;;;;7.90;6.87;;;7.40;99.90;;;;;;5080153;28;20540;-79
2021/12/13 15:01:42;;;;;;;6.23;5.63;;;7.40;99.90;;;;;;5086809;28;20424;-80
2021/12/13 15:04:33;;;;;;;8.37;7.00;;;7.40;99.90;;;;;;5086855;28;20423;-79
2021/12/13 15:07:22;;;;;;;7.17;5.67;;;7.40;99.90;;;;;;5085631;28;20442;-79
2021/12/13 15:10:17;;;;;;;6.63;5.70;;;7.30;99.90;;;;;;5086183;28;20390;-79
2021/12/13 15:13:07;;;;;;;5.70;5.03;;;7.40;99.90;;;;;;5091626;28;20395;-79
2021/12/13 15:15:57;;;;;;;6.80;5.90;;;7.30;99.90;;;;;;5095390;28;20432;-79
2021/12/13 15:18:48;;;;;;;8.50;6.80;;;7.30;99.90;;;;;;5080136;28;20454;-80
2021/12/13 15:21:41;;;;;;;7.10;5.53;;;7.30;99.90;;;;;;5084180;28;20510;-78
2021/12/13 15:24:34;;;;;;;8.20;6.13;;;7.30;99.90;;;;;;5073767;28;20584;-79
2021/12/13 15:27:23;;;;;;;6.77;6.17;;;7.30;99.90;;;;;;5088110;28;20429;-79
2021/12/13 15:30:13;;;;;;;9.70;7.00;;;7.20;99.90;;;;;;5087990;28;20430;-80
2021/12/13 15:33:01;;;;;;;7.60;6.17;;;7.20;99.90;;;;;;5089925;28;21035;-79
2021/12/13 15:35:47;;;;;;;7.37;5.43;;;7.20;99.90;;;;;;5070126;28;20440;-80
2021/12/13 15:38:32;;;;;;;9.63;6.50;;;7.30;99.90;;;;;;5077730;28;20444;-80
2021/12/13 15:41:22;;;;;;;7.17;6.00;;;7.40;99.90;;;;;;5065433;28;20407;-80
2021/12/13 15:44:11;;;;;;;9.60;6.00;;;7.30;99.90;;;;;;5082304;28;20499;-80
2021/12/13 15:46:57;;;;;;;10.20;7.07;;;7.20;99.90;;;;;;5079783;28;20434;-80
2021/12/13 15:49:41;;;;;;;8.50;7.60;;;7.30;99.90;;;;;;5064668;28;20383;-80
2021/12/13 15:52:27;;;;;;;13.30;9.30;;;7.40;99.90;;;;;;5088901;28;20534;-80
2021/12/13 15:55:11;;;;;;;16.53;13.37;;;7.30;99.90;;;;;;5088464;28;20427;-80
2021/12/13 15:58:14;;;;;;;20.50;12.80;;;7.30;99.90;;;;;;5090499;28;20775;-80
2021/12/13 16:01:09;;;;;;;15.83;8.83;;;7.30;99.90;;;;;;5077346;28;20443;-80
2021/12/13 16:03:57;;;;;;;17.43;9.17;;;7.30;99.90;;;;;;5077642;28;20468;-80
2021/12/13 16:06:47;;;;;;;21.80;11.40;;;7.30;99.90;;;;;;5076949;28;20363;-80
2021/12/13 16:09:35;;;;;;;23.00;11.90;;;7.30;99.90;;;;;;5079231;28;20407;-80
2021/12/13 16:12:25;;;;;;;25.17;12.47;;;7.30;99.90;;;;;;5084359;28;20428;-80
2021/12/13 16:15:13;;;;;;;23.03;10.77;;;7.30;99.90;;;;;;5059874;28;20425;-80
2021/12/13 16:18:02;;;;;;;17.30;10.40;;;7.30;99.90;;;;;;5061276;28;20956;-80
2021/12/13 16:20:49;;;;;;;19.47;10.60;;;7.20;99.90;;;;;;5088347;28;20415;-80
2021/12/13 16:23:34;;;;;;;19.30;10.87;;;7.20;99.90;;;;;;5087413;28;20489;-79
2021/12/13 16:26:27;;;;;;;31.23;12.50;;;7.20;99.90;;;;;;5071321;28;20413;-79
2021/12/13 16:29:13;;;;;;;24.77;12.83;;;7.20;99.90;;;;;;5071247;28;20406;-78
2021/12/13 16:31:57;;;;;;;36.25;17.23;;;7.20;99.90;;;;;;5074194;28;20414;-79
2021/12/13 16:34:42;;;;;;;31.00;11.93;;;7.20;99.90;;;;;;5090226;28;20173;-79
2021/12/13 16:37:27;;;;;;;20.97;11.97;;;7.20;99.90;;;;;;5090607;28;20416;-78
2021/12/13 16:40:12;;;;;;;27.60;11.17;;;7.20;99.90;;;;;;5084308;28;20471;-79
2021/12/13 16:43:02;;;;;;;24.90;10.07;;;7.20;99.90;;;;;;5076437;28;20877;-80
2021/12/13 16:45:51;;;;;;;29.07;10.73;;;7.20;99.90;;;;;;5085346;28;20517;-81
2021/12/13 16:48:40;;;;;;;31.83;12.50;;;7.20;99.90;;;;;;5087400;28;20449;-80
2021/12/13 16:51:30;;;;;;;21.57;11.33;;;7.20;99.90;;;;;;5089468;28;20475;-80
2021/12/13 16:54:23;;;;;;;19.60;11.00;;;7.30;99.90;;;;;;5085277;28;20405;-78
2021/12/13 16:57:13;;;;;;;28.00;12.27;;;7.30;99.90;;;;;;5093409;28;20375;-80
2021/12/13 17:00:05;;;;;;;20.60;13.40;;;7.10;99.90;;;;;;5076008;28;20392;-81
2021/12/13 17:02:52;;;;;;;26.00;12.20;;;7.10;99.90;;;;;;5081658;28;20476;-79
2021/12/13 17:05:57;;;;;;;27.80;14.30;;;7.00;99.90;;;;;;4966464;28;20457;-80
2021/12/13 17:08:52;;;;;;;35.37;13.80;;;7.00;99.90;;;;;;4968376;28;20969;-79
2021/12/13 17:11:38;;;;;;;25.13;12.40;;;7.00;99.90;;;;;;4962957;28;20372;-78
2021/12/13 17:14:24;;;;;;;32.97;12.90;;;7.00;99.90;;;;;;4969526;29;20496;-78
2021/12/13 17:17:10;;;;;;;33.87;13.03;;;7.00;99.90;;;;;;4975145;28;20466;-80
2021/12/13 17:19:58;;;;;;;22.90;10.73;;;7.00;99.90;;;;;;4923645;29;20389;-80
2021/12/13 17:22:46;;;;;;;21.20;12.37;;;7.00;99.90;;;;;;4930639;28;20451;-79
2021/12/13 17:25:33;;;;;;;22.17;13.80;;;7.00;99.90;;;;;;4944787;29;20433;-79
2021/12/13 17:28:17;;;;;;;26.63;12.37;;;6.90;99.90;;;;;;4931160;29;20399;-79
2021/12/13 17:31:02;;;;;;;22.73;10.10;;;7.00;99.90;;;;;;4931957;29;20937;-79
2021/12/13 17:33:46;;;;;;;43.33;13.43;;;7.00;99.90;;;;;;4907402;29;20425;-79
2021/12/13 17:36:44;;;;;;;29.50;13.37;;;7.10;99.90;;;;;;4920946;28;20414;-80
2021/12/13 17:39:31;;;;;;;24.77;10.47;;;7.00;99.90;;;;;;4988172;28;20480;-79
2021/12/13 17:42:19;;;;;;;27.67;15.47;;;7.00;99.90;;;;;;4990361;28;20444;-79
2021/12/13 17:45:31;;;;;;;32.90;13.53;;;7.10;99.90;;;;;;4988989;28;20434;-79
2021/12/13 17:48:26;;;;;;;20.50;11.10;;;7.10;99.90;;;;;;4990326;28;20443;-79
2021/12/13 17:51:16;;;;;;;28.60;11.70;;;7.10;99.90;;;;;;4991908;28;20399;-79
2021/12/13 17:54:05;;;;;;;26.73;11.70;;;7.00;99.90;;;;;;4975308;28;20798;-79
2021/12/13 17:56:53;;;;;;;29.57;12.87;;;7.00;99.90;;;;;;4985542;28;20417;-79
2021/12/13 17:59:38;;;;;;;27.40;13.30;;;7.00;99.90;;;;;;5004438;28;20853;-79
2021/12/13 18:02:25;;;;;;;24.77;12.47;;;7.10;99.90;;;;;;4970197;28;20459;-79
2021/12/13 18:05:12;;;;;;;29.37;10.10;;;7.00;99.90;;;;;;4970649;28;20430;-79
2021/12/13 18:08:07;;;;;;;20.10;11.47;;;7.00;99.90;;;;;;4987351;28;20447;-78
2021/12/13 18:10:52;;;;;;;28.83;14.20;;;7.00;99.90;;;;;;5031489;28;20426;-79
2021/12/13 18:13:43;;;;;;;30.07;11.00;;;7.10;99.90;;;;;;5009058;28;20788;-79
2021/12/13 18:16:34;;;;;;;24.40;13.30;;;7.10;99.90;;;;;;5014857;28;20381;-79
2021/12/13 18:19:19;;;;;;;26.60;12.77;;;7.10;99.90;;;;;;5031496;28;20756;-79
2021/12/13 18:22:22;;;;;;;31.77;12.30;;;7.10;99.90;;;;;;4998261;28;20456;-80
2021/12/13 18:25:20;;;;;;;21.20;11.07;;;7.10;99.90;;;;;;5024582;28;20887;-80
2021/12/13 18:28:19;;;;;;;30.57;12.80;;;7.00;99.90;;;;;;5009048;28;20429;-80
2021/12/13 18:31:27;;;;;;;26.90;12.43;;;7.00;99.90;;;;;;4973762;28;20438;-80